sensor_id;sensor_type;location;lat;lon;timestamp;temperature;humidity
24164;DHT22;12319;49.204;8.116;2023-11-21T00:00:13;10.50;99.90
24164;DHT22;12319;49.204;8.116;2023-11-21T00:02:39;10.50;99.90
24164;DHT22;12319;49.204;8.116;2023-11-21T00:05:07;10.50;99.90
24164;DHT22;12319;49.204;8.116;2023-11-21T00:07:33;10.50;99.90
24164;DHT22;12319;49.204;8.116;2023-11-21T00:09:59;10.60;99.90
24164;DHT22;12319;49.204;8.116;2023-11-21T00:12:24;10.60;99.90
24164;DHT22;12319;49.204;8.116;2023-11-21T00:14:50;10.60;99.90
24164;DHT22;12319;49.204;8.116;2023-11-21T00:17:15;10.60;99.90
24164;DHT22;12319;49.204;8.116;2023-11-21T00:19:41;10.60;99.90
24164;DHT22;12319;49.204;8.116;2023-11-21T00:22:08;10.50;99.90
24164;DHT22;12319;49.204;8.116;2023-11-21T00:24:34;10.50;99.90
24164;DHT22;12319;49.204;8.116;2023-11-21T00:27:00;10.50;99.90
24164;DHT22;12319;49.204;8.116;2023-11-21T00:29:25;10.50;99.90
24164;DHT22;12319;49.204;8.116;2023-11-21T00:31:51;10.40;99.90
24164;DHT22;12319;49.204;8.116;2023-11-21T00:34:16;10.40;99.90
24164;DHT22;12319;49.204;8.116;2023-11-21T00:36:42;10.40;99.90
24164;DHT22;12319;49.204;8.116;2023-11-21T00:39:08;10.40;99.90
24164;DHT22;12319;49.204;8.116;2023-11-21T00:41:34;10.40;99.90
24164;DHT22;12319;49.204;8.116;2023-11-21T00:44:00;10.40;99.90
24164;DHT22;12319;49.204;8.116;2023-11-21T00:46:26;10.40;99.90
24164;DHT22;12319;49.204;8.116;2023-11-21T00:48:55;10.50;99.90
24164;DHT22;12319;49.204;8.116;2023-11-21T00:51:21;10.50;99.90
24164;DHT22;12319;49.204;8.116;2023-11-21T00:53:47;10.50;99.90
24164;DHT22;12319;49.204;8.116;2023-11-21T00:56:13;10.50;99.90
24164;DHT22;12319;49.204;8.116;2023-11-21T00:58:39;10.60;99.90
24164;DHT22;12319;49.204;8.116;2023-11-21T01:01:07;10.60;99.90
24164;DHT22;12319;49.204;8.116;2023-11-21T01:03:33;10.60;99.90
24164;DHT22;12319;49.204;8.116;2023-11-21T01:05:58;10.60;99.90
24164;DHT22;12319;49.204;8.116;2023-11-21T01:08:24;10.60;99.90
24164;DHT22;12319;49.204;8.116;2023-11-21T01:10:50;10.60;99.90
24164;DHT22;12319;49.204;8.116;2023-11-21T01:13:15;10.60;99.90
24164;DHT22;12319;49.204;8.116;2023-11-21T01:15:42;10.60;99.90
24164;DHT22;12319;49.204;8.116;2023-11-21T01:18:07;10.60;99.90
24164;DHT22;12319;49.204;8.116;2023-11-21T01:20:34;10.60;99.90
24164;DHT22;12319;49.204;8.116;2023-11-21T01:22:59;10.60;99.90
24164;DHT22;12319;49.204;8.116;2023-11-21T01:25:25;10.60;99.90
24164;DHT22;12319;49.204;8.116;2023-11-21T01:27:51;10.60;99.90
24164;DHT22;12319;49.204;8.116;2023-11-21T01:30:17;10.60;99.90
24164;DHT22;12319;49.204;8.116;2023-11-21T01:32:43;10.60;99.90
24164;DHT22;12319;49.204;8.116;2023-11-21T01:35:09;10.60;99.90
24164;DHT22;12319;49.204;8.116;2023-11-21T01:37:36;10.60;99.90
24164;DHT22;12319;49.204;8.116;2023-11-21T01:40:02;10.60;99.90
24164;DHT22;12319;49.204;8.116;2023-11-21T01:42:27;10.60;99.90
24164;DHT22;12319;49.204;8.116;2023-11-21T01:44:54;10.60;99.90
24164;DHT22;12319;49.204;8.116;2023-11-21T01:47:20;10.60;99.90
24164;DHT22;12319;49.204;8.116;2023-11-21T01:49:46;10.60;99.90
24164;DHT22;12319;49.204;8.116;2023-11-21T01:52:13;10.60;99.90
24164;DHT22;12319;49.204;8.116;2023-11-21T01:54:39;10.60;99.90
24164;DHT22;12319;49.204;8.116;2023-11-21T01:57:07;10.60;99.90
24164;DHT22;12319;49.204;8.116;2023-11-21T01:59:37;10.60;99.90
24164;DHT22;12319;49.204;8.116;2023-11-21T02:02:04;10.60;99.90
24164;DHT22;12319;49.204;8.116;2023-11-21T02:04:32;10.60;99.90
24164;DHT22;12319;49.204;8.116;2023-11-21T02:06:58;10.60;99.90
24164;DHT22;12319;49.204;8.116;2023-11-21T02:09:27;10.60;99.90
24164;DHT22;12319;49.204;8.116;2023-11-21T02:11:53;10.60;99.90
24164;DHT22;12319;49.204;8.116;2023-11-21T02:14:20;10.60;99.90
24164;DHT22;12319;49.204;8.116;2023-11-21T02:16:51;10.60;99.90
24164;DHT22;12319;49.204;8.116;2023-11-21T02:19:20;10.60;99.90
24164;DHT22;12319;49.204;8.116;2023-11-21T02:21:51;10.60;99.90
24164;DHT22;12319;49.204;8.116;2023-11-21T02:24:23;10.60;99.90
24164;DHT22;12319;49.204;8.116;2023-11-21T02:26:50;10.60;99.90
24164;DHT22;12319;49.204;8.116;2023-11-21T02:29:19;10.60;99.90
24164;DHT22;12319;49.204;8.116;2023-11-21T02:31:49;10.60;99.90
24164;DHT22;12319;49.204;8.116;2023-11-21T02:34:15;10.60;99.90
24164;DHT22;12319;49.204;8.116;2023-11-21T02:36:41;10.60;99.90
24164;DHT22;12319;49.204;8.116;2023-11-21T02:39:08;10.60;99.90
24164;DHT22;12319;49.204;8.116;2023-11-21T02:41:33;10.70;99.90
24164;DHT22;12319;49.204;8.116;2023-11-21T02:44:00;10.70;99.90
24164;DHT22;12319;49.204;8.116;2023-11-21T02:46:25;10.70;99.90
24164;DHT22;12319;49.204;8.116;2023-11-21T02:48:51;10.70;99.90
24164;DHT22;12319;49.204;8.116;2023-11-21T02:51:19;10.70;99.90
24164;DHT22;12319;49.204;8.116;2023-11-21T02:53:44;10.70;99.90
24164;DHT22;12319;49.204;8.116;2023-11-21T02:56:12;10.70;99.90
24164;DHT22;12319;49.204;8.116;2023-11-21T02:58:37;10.70;99.90
24164;DHT22;12319;49.204;8.116;2023-11-21T03:01:03;10.70;99.90
24164;DHT22;12319;49.204;8.116;2023-11-21T03:03:32;10.70;99.90
24164;DHT22;12319;49.204;8.116;2023-11-21T03:05:58;10.70;99.90
24164;DHT22;12319;49.204;8.116;2023-11-21T03:08:25;10.70;99.90
24164;DHT22;12319;49.204;8.116;2023-11-21T03:10:50;10.70;99.90
24164;DHT22;12319;49.204;8.116;2023-11-21T03:13:16;10.70;99.90
24164;DHT22;12319;49.204;8.116;2023-11-21T03:15:42;10.70;99.90
24164;DHT22;12319;49.204;8.116;2023-11-21T03:18:08;10.70;99.90
24164;DHT22;12319;49.204;8.116;2023-11-21T03:20:33;10.60;99.90
24164;DHT22;12319;49.204;8.116;2023-11-21T03:23:00;10.70;99.90
24164;DHT22;12319;49.204;8.116;2023-11-21T03:25:25;10.70;99.90
24164;DHT22;12319;49.204;8.116;2023-11-21T03:27:51;10.70;99.90
24164;DHT22;12319;49.204;8.116;2023-11-21T03:30:17;10.60;99.90
24164;DHT22;12319;49.204;8.116;2023-11-21T03:32:42;10.60;99.90
24164;DHT22;12319;49.204;8.116;2023-11-21T03:35:08;10.60;99.90
24164;DHT22;12319;49.204;8.116;2023-11-21T03:37:33;10.60;99.90
24164;DHT22;12319;49.204;8.116;2023-11-21T03:39:59;10.60;99.90
24164;DHT22;12319;49.204;8.116;2023-11-21T03:42:25;10.60;99.90
24164;DHT22;12319;49.204;8.116;2023-11-21T03:44:53;10.70;99.90
24164;DHT22;12319;49.204;8.116;2023-11-21T03:47:18;10.70;99.90
24164;DHT22;12319;49.204;8.116;2023-11-21T03:49:45;10.70;99.90
24164;DHT22;12319;49.204;8.116;2023-11-21T03:52:11;10.70;99.90
24164;DHT22;12319;49.204;8.116;2023-11-21T03:54:37;10.70;99.90
24164;DHT22;12319;49.204;8.116;2023-11-21T03:57:03;10.70;99.90
24164;DHT22;12319;49.204;8.116;2023-11-21T03:59:28;10.80;99.90
24164;DHT22;12319;49.204;8.116;2023-11-21T04:01:56;10.80;99.90
24164;DHT22;12319;49.204;8.116;2023-11-21T04:04:22;10.80;99.90
24164;DHT22;12319;49.204;8.116;2023-11-21T04:06:47;10.80;99.90
24164;DHT22;12319;49.204;8.116;2023-11-21T04:09:13;11.00;99.90
24164;DHT22;12319;49.204;8.116;2023-11-21T04:11:39;10.90;99.90
24164;DHT22;12319;49.204;8.116;2023-11-21T04:14:04;10.80;99.90
24164;DHT22;12319;49.204;8.116;2023-11-21T04:16:29;10.90;99.90
24164;DHT22;12319;49.204;8.116;2023-11-21T04:18:55;10.80;99.90
24164;DHT22;12319;49.204;8.116;2023-11-21T04:21:21;10.80;99.90
24164;DHT22;12319;49.204;8.116;2023-11-21T04:23:46;10.80;99.90
24164;DHT22;12319;49.204;8.116;2023-11-21T04:26:12;10.80;99.90
24164;DHT22;12319;49.204;8.116;2023-11-21T04:28:37;10.80;99.90
24164;DHT22;12319;49.204;8.116;2023-11-21T04:31:03;10.80;99.90
24164;DHT22;12319;49.204;8.116;2023-11-21T04:33:28;10.80;99.90
24164;DHT22;12319;49.204;8.116;2023-11-21T04:35:54;10.80;99.90
24164;DHT22;12319;49.204;8.116;2023-11-21T04:38:20;10.80;99.90
24164;DHT22;12319;49.204;8.116;2023-11-21T04:40:45;10.70;99.90
24164;DHT22;12319;49.204;8.116;2023-11-21T04:43:11;10.70;99.90
24164;DHT22;12319;49.204;8.116;2023-11-21T04:45:36;10.70;99.90
24164;DHT22;12319;49.204;8.116;2023-11-21T04:48:02;10.70;99.90
24164;DHT22;12319;49.204;8.116;2023-11-21T04:50:28;10.70;99.90
24164;DHT22;12319;49.204;8.116;2023-11-21T04:52:53;10.70;99.90
24164;DHT22;12319;49.204;8.116;2023-11-21T04:55:19;10.70;99.90
24164;DHT22;12319;49.204;8.116;2023-11-21T04:57:45;10.70;99.90
24164;DHT22;12319;49.204;8.116;2023-11-21T05:00:11;10.70;99.90
24164;DHT22;12319;49.204;8.116;2023-11-21T05:02:37;10.70;99.90
24164;DHT22;12319;49.204;8.116;2023-11-21T05:05:03;10.70;99.90
24164;DHT22;12319;49.204;8.116;2023-11-21T05:07:32;10.70;99.90
24164;DHT22;12319;49.204;8.116;2023-11-21T05:09:57;10.70;99.90
24164;DHT22;12319;49.204;8.116;2023-11-21T05:12:24;10.70;99.90
24164;DHT22;12319;49.204;8.116;2023-11-21T05:14:50;10.70;99.90
24164;DHT22;12319;49.204;8.116;2023-11-21T05:17:16;10.70;99.90
24164;DHT22;12319;49.204;8.116;2023-11-21T05:19:41;10.70;99.90
24164;DHT22;12319;49.204;8.116;2023-11-21T05:22:08;10.70;99.90
24164;DHT22;12319;49.204;8.116;2023-11-21T05:24:34;10.60;99.90
24164;DHT22;12319;49.204;8.116;2023-11-21T05:27:00;10.70;99.90
24164;DHT22;12319;49.204;8.116;2023-11-21T05:29:26;10.70;99.90
24164;DHT22;12319;49.204;8.116;2023-11-21T05:31:51;10.70;99.90
24164;DHT22;12319;49.204;8.116;2023-11-21T05:34:18;10.70;99.90
24164;DHT22;12319;49.204;8.116;2023-11-21T05:36:44;10.70;99.90
24164;DHT22;12319;49.204;8.116;2023-11-21T05:39:11;10.70;99.90
24164;DHT22;12319;49.204;8.116;2023-11-21T05:41:36;10.80;99.90
24164;DHT22;12319;49.204;8.116;2023-11-21T05:44:02;10.70;99.90
24164;DHT22;12319;49.204;8.116;2023-11-21T05:46:28;10.80;99.90
24164;DHT22;12319;49.204;8.116;2023-11-21T05:48:53;10.80;99.90
24164;DHT22;12319;49.204;8.116;2023-11-21T05:51:19;10.80;99.90
24164;DHT22;12319;49.204;8.116;2023-11-21T05:53:44;10.80;99.90
24164;DHT22;12319;49.204;8.116;2023-11-21T05:56:10;10.80;99.90
24164;DHT22;12319;49.204;8.116;2023-11-21T05:58:35;10.80;99.90
24164;DHT22;12319;49.204;8.116;2023-11-21T06:01:01;10.80;99.90
24164;DHT22;12319;49.204;8.116;2023-11-21T06:03:26;10.80;99.90
24164;DHT22;12319;49.204;8.116;2023-11-21T06:05:52;10.80;99.90
24164;DHT22;12319;49.204;8.116;2023-11-21T06:08:17;10.80;99.90
24164;DHT22;12319;49.204;8.116;2023-11-21T06:10:44;10.80;99.90
24164;DHT22;12319;49.204;8.116;2023-11-21T06:13:09;10.80;99.90
24164;DHT22;12319;49.204;8.116;2023-11-21T06:15:36;10.90;99.90
24164;DHT22;12319;49.204;8.116;2023-11-21T06:18:01;10.90;99.90
24164;DHT22;12319;49.204;8.116;2023-11-21T06:20:27;10.90;99.90
24164;DHT22;12319;49.204;8.116;2023-11-21T06:22:53;10.90;99.90
24164;DHT22;12319;49.204;8.116;2023-11-21T06:25:19;10.90;99.90
24164;DHT22;12319;49.204;8.116;2023-11-21T06:27:46;10.90;99.90
24164;DHT22;12319;49.204;8.116;2023-11-21T06:30:15;10.90;99.90
24164;DHT22;12319;49.204;8.116;2023-11-21T06:32:42;10.90;99.90
24164;DHT22;12319;49.204;8.116;2023-11-21T06:35:11;11.00;99.90
24164;DHT22;12319;49.204;8.116;2023-11-21T06:37:37;11.00;99.90
24164;DHT22;12319;49.204;8.116;2023-11-21T06:40:03;11.00;99.90
24164;DHT22;12319;49.204;8.116;2023-11-21T06:42:32;11.00;99.90
24164;DHT22;12319;49.204;8.116;2023-11-21T06:44:59;11.00;99.90
24164;DHT22;12319;49.204;8.116;2023-11-21T06:47:25;11.00;99.90
24164;DHT22;12319;49.204;8.116;2023-11-21T06:49:51;11.00;99.90
24164;DHT22;12319;49.204;8.116;2023-11-21T06:52:17;10.90;99.90
24164;DHT22;12319;49.204;8.116;2023-11-21T06:54:43;10.90;99.90
24164;DHT22;12319;49.204;8.116;2023-11-21T06:57:09;10.80;99.90
24164;DHT22;12319;49.204;8.116;2023-11-21T06:59:35;10.80;99.90
24164;DHT22;12319;49.204;8.116;2023-11-21T07:02:01;10.80;99.90
24164;DHT22;12319;49.204;8.116;2023-11-21T07:04:26;10.80;99.90
24164;DHT22;12319;49.204;8.116;2023-11-21T07:06:53;10.70;99.90
24164;DHT22;12319;49.204;8.116;2023-11-21T07:09:19;10.80;99.90
24164;DHT22;12319;49.204;8.116;2023-11-21T07:11:47;10.70;99.90
24164;DHT22;12319;49.204;8.116;2023-11-21T07:14:14;10.80;99.90
24164;DHT22;12319;49.204;8.116;2023-11-21T07:16:39;10.80;99.90
24164;DHT22;12319;49.204;8.116;2023-11-21T07:19:05;10.80;99.90
24164;DHT22;12319;49.204;8.116;2023-11-21T07:21:35;10.80;99.90
24164;DHT22;12319;49.204;8.116;2023-11-21T07:24:02;10.90;99.90
24164;DHT22;12319;49.204;8.116;2023-11-21T07:26:28;10.90;99.90
24164;DHT22;12319;49.204;8.116;2023-11-21T07:28:54;11.00;99.90
24164;DHT22;12319;49.204;8.116;2023-11-21T07:31:19;11.00;99.90
24164;DHT22;12319;49.204;8.116;2023-11-21T07:33:46;11.10;99.90
24164;DHT22;12319;49.204;8.116;2023-11-21T07:36:15;11.10;99.90
24164;DHT22;12319;49.204;8.116;2023-11-21T07:38:42;11.20;99.90
24164;DHT22;12319;49.204;8.116;2023-11-21T07:41:08;11.20;99.90
24164;DHT22;12319;49.204;8.116;2023-11-21T07:43:35;11.20;99.90
24164;DHT22;12319;49.204;8.116;2023-11-21T07:46:04;11.40;99.90
24164;DHT22;12319;49.204;8.116;2023-11-21T07:48:30;11.30;99.90
24164;DHT22;12319;49.204;8.116;2023-11-21T07:50:57;11.40;99.90
24164;DHT22;12319;49.204;8.116;2023-11-21T07:53:24;11.40;99.90
24164;DHT22;12319;49.204;8.116;2023-11-21T07:55:51;11.50;99.90
24164;DHT22;12319;49.204;8.116;2023-11-21T07:58:16;11.50;99.90
24164;DHT22;12319;49.204;8.116;2023-11-21T08:00:41;11.70;99.90
24164;DHT22;12319;49.204;8.116;2023-11-21T08:03:07;11.70;99.90
24164;DHT22;12319;49.204;8.116;2023-11-21T08:05:33;11.70;99.90
24164;DHT22;12319;49.204;8.116;2023-11-21T08:07:58;11.80;99.90
24164;DHT22;12319;49.204;8.116;2023-11-21T08:10:24;11.80;99.90
24164;DHT22;12319;49.204;8.116;2023-11-21T08:12:50;11.90;99.90
24164;DHT22;12319;49.204;8.116;2023-11-21T08:15:16;11.80;99.90
24164;DHT22;12319;49.204;8.116;2023-11-21T08:17:42;11.80;99.90
24164;DHT22;12319;49.204;8.116;2023-11-21T08:20:08;11.90;99.90
24164;DHT22;12319;49.204;8.116;2023-11-21T08:22:36;11.90;99.90
24164;DHT22;12319;49.204;8.116;2023-11-21T08:25:01;11.90;99.90
24164;DHT22;12319;49.204;8.116;2023-11-21T08:27:29;11.90;99.90
24164;DHT22;12319;49.204;8.116;2023-11-21T08:29:55;11.90;99.90
24164;DHT22;12319;49.204;8.116;2023-11-21T08:32:21;12.00;99.90
24164;DHT22;12319;49.204;8.116;2023-11-21T08:34:47;12.00;99.90
24164;DHT22;12319;49.204;8.116;2023-11-21T08:37:16;12.00;99.90
24164;DHT22;12319;49.204;8.116;2023-11-21T08:39:43;12.10;99.90
24164;DHT22;12319;49.204;8.116;2023-11-21T08:42:08;12.10;99.90
24164;DHT22;12319;49.204;8.116;2023-11-21T08:44:34;12.10;99.90
24164;DHT22;12319;49.204;8.116;2023-11-21T08:46:59;12.10;99.90
24164;DHT22;12319;49.204;8.116;2023-11-21T08:49:25;12.10;99.90
24164;DHT22;12319;49.204;8.116;2023-11-21T08:51:53;12.20;99.90
24164;DHT22;12319;49.204;8.116;2023-11-21T08:54:21;12.20;99.90
24164;DHT22;12319;49.204;8.116;2023-11-21T08:56:46;12.20;99.90
24164;DHT22;12319;49.204;8.116;2023-11-21T08:59:12;12.30;99.90
24164;DHT22;12319;49.204;8.116;2023-11-21T09:01:40;12.30;99.90
24164;DHT22;12319;49.204;8.116;2023-11-21T09:04:06;12.50;99.90
24164;DHT22;12319;49.204;8.116;2023-11-21T09:06:31;12.50;99.90
24164;DHT22;12319;49.204;8.116;2023-11-21T09:08:57;12.60;99.90
24164;DHT22;12319;49.204;8.116;2023-11-21T09:11:23;12.70;99.90
24164;DHT22;12319;49.204;8.116;2023-11-21T09:13:50;12.80;99.90
24164;DHT22;12319;49.204;8.116;2023-11-21T09:16:16;12.80;99.90
24164;DHT22;12319;49.204;8.116;2023-11-21T09:18:42;12.90;99.90
24164;DHT22;12319;49.204;8.116;2023-11-21T09:21:08;12.90;99.90
24164;DHT22;12319;49.204;8.116;2023-11-21T09:23:34;13.00;99.90
24164;DHT22;12319;49.204;8.116;2023-11-21T09:26:00;12.90;99.90
24164;DHT22;12319;49.204;8.116;2023-11-21T09:28:26;13.00;99.90
24164;DHT22;12319;49.204;8.116;2023-11-21T09:30:53;12.90;99.90
24164;DHT22;12319;49.204;8.116;2023-11-21T09:33:18;13.00;99.90
24164;DHT22;12319;49.204;8.116;2023-11-21T09:35:45;13.00;99.90
24164;DHT22;12319;49.204;8.116;2023-11-21T09:38:10;13.00;99.90
24164;DHT22;12319;49.204;8.116;2023-11-21T09:40:37;12.90;99.90
24164;DHT22;12319;49.204;8.116;2023-11-21T09:43:07;12.90;99.90
24164;DHT22;12319;49.204;8.116;2023-11-21T09:45:39;12.80;99.90
24164;DHT22;12319;49.204;8.116;2023-11-21T09:48:07;12.80;99.90
24164;DHT22;12319;49.204;8.116;2023-11-21T09:50:33;12.80;99.90
24164;DHT22;12319;49.204;8.116;2023-11-21T09:53:18;12.90;99.90
24164;DHT22;12319;49.204;8.116;2023-11-21T09:55:47;12.80;99.90
24164;DHT22;12319;49.204;8.116;2023-11-21T09:58:14;12.80;99.90
24164;DHT22;12319;49.204;8.116;2023-11-21T10:00:41;12.70;99.90
24164;DHT22;12319;49.204;8.116;2023-11-21T10:03:07;12.70;99.90
24164;DHT22;12319;49.204;8.116;2023-11-21T10:05:33;12.70;99.90
24164;DHT22;12319;49.204;8.116;2023-11-21T10:07:59;12.70;99.90
24164;DHT22;12319;49.204;8.116;2023-11-21T10:10:26;12.70;99.90
24164;DHT22;12319;49.204;8.116;2023-11-21T10:12:56;12.70;99.90
24164;DHT22;12319;49.204;8.116;2023-11-21T10:15:22;12.70;99.90
24164;DHT22;12319;49.204;8.116;2023-11-21T10:17:53;12.60;99.90
24164;DHT22;12319;49.204;8.116;2023-11-21T10:20:23;12.60;99.90
24164;DHT22;12319;49.204;8.116;2023-11-21T10:22:49;12.50;99.90
24164;DHT22;12319;49.204;8.116;2023-11-21T10:25:15;12.40;99.90
24164;DHT22;12319;49.204;8.116;2023-11-21T10:27:42;12.30;99.90
24164;DHT22;12319;49.204;8.116;2023-11-21T10:30:09;12.40;99.90
24164;DHT22;12319;49.204;8.116;2023-11-21T10:32:42;12.30;99.90
24164;DHT22;12319;49.204;8.116;2023-11-21T10:35:08;12.30;99.90
24164;DHT22;12319;49.204;8.116;2023-11-21T10:40:06;12.40;99.90
24164;DHT22;12319;49.204;8.116;2023-11-21T10:42:32;12.50;99.90
24164;DHT22;12319;49.204;8.116;2023-11-21T10:44:58;12.50;99.90
24164;DHT22;12319;49.204;8.116;2023-11-21T10:47:23;12.50;99.90
24164;DHT22;12319;49.204;8.116;2023-11-21T10:49:49;12.50;99.90
24164;DHT22;12319;49.204;8.116;2023-11-21T10:52:15;12.50;99.90
24164;DHT22;12319;49.204;8.116;2023-11-21T10:54:43;12.50;99.90
24164;DHT22;12319;49.204;8.116;2023-11-21T10:57:10;12.50;99.90
24164;DHT22;12319;49.204;8.116;2023-11-21T10:59:36;12.40;99.90
24164;DHT22;12319;49.204;8.116;2023-11-21T11:02:12;12.40;99.90
24164;DHT22;12319;49.204;8.116;2023-11-21T11:04:42;12.30;99.90
24164;DHT22;12319;49.204;8.116;2023-11-21T11:07:08;12.30;99.90
24164;DHT22;12319;49.204;8.116;2023-11-21T11:09:37;12.20;99.90
24164;DHT22;12319;49.204;8.116;2023-11-21T11:12:03;12.20;99.90
24164;DHT22;12319;49.204;8.116;2023-11-21T11:14:32;12.20;99.90
24164;DHT22;12319;49.204;8.116;2023-11-21T11:16:58;12.20;99.90
24164;DHT22;12319;49.204;8.116;2023-11-21T11:19:25;12.30;99.90
24164;DHT22;12319;49.204;8.116;2023-11-21T11:28:19;12.30;99.90
24164;DHT22;12319;49.204;8.116;2023-11-21T11:33:50;12.30;99.90
24164;DHT22;12319;49.204;8.116;2023-11-21T11:36:29;12.40;99.90
24164;DHT22;12319;49.204;8.116;2023-11-21T11:38:56;12.30;99.90
24164;DHT22;12319;49.204;8.116;2023-11-21T11:41:26;12.40;99.90
24164;DHT22;12319;49.204;8.116;2023-11-21T11:43:56;12.30;99.90
24164;DHT22;12319;49.204;8.116;2023-11-21T11:46:43;12.40;99.90
24164;DHT22;12319;49.204;8.116;2023-11-21T11:49:10;12.40;99.90
24164;DHT22;12319;49.204;8.116;2023-11-21T11:51:36;12.40;99.90
24164;DHT22;12319;49.204;8.116;2023-11-21T11:54:02;12.40;99.90
24164;DHT22;12319;49.204;8.116;2023-11-21T11:56:30;12.30;99.90
24164;DHT22;12319;49.204;8.116;2023-11-21T11:58:58;12.30;99.90
24164;DHT22;12319;49.204;8.116;2023-11-21T12:01:27;12.30;99.90
24164;DHT22;12319;49.204;8.116;2023-11-21T12:06:45;12.30;99.90
24164;DHT22;12319;49.204;8.116;2023-11-21T12:09:23;12.30;99.90
24164;DHT22;12319;49.204;8.116;2023-11-21T12:11:50;12.30;99.90
24164;DHT22;12319;49.204;8.116;2023-11-21T12:14:16;12.30;99.90
24164;DHT22;12319;49.204;8.116;2023-11-21T12:16:42;12.30;99.90
24164;DHT22;12319;49.204;8.116;2023-11-21T12:19:09;12.30;99.90
24164;DHT22;12319;49.204;8.116;2023-11-21T12:21:36;12.40;99.90
24164;DHT22;12319;49.204;8.116;2023-11-21T12:24:02;12.50;99.90
24164;DHT22;12319;49.204;8.116;2023-11-21T12:26:28;12.50;99.90
24164;DHT22;12319;49.204;8.116;2023-11-21T12:28:54;12.60;99.90
24164;DHT22;12319;49.204;8.116;2023-11-21T12:31:23;12.60;99.90
24164;DHT22;12319;49.204;8.116;2023-11-21T12:33:49;12.60;99.90
24164;DHT22;12319;49.204;8.116;2023-11-21T12:36:15;12.70;99.90
24164;DHT22;12319;49.204;8.116;2023-11-21T12:38:42;12.60;99.90
24164;DHT22;12319;49.204;8.116;2023-11-21T12:41:08;12.60;99.90
24164;DHT22;12319;49.204;8.116;2023-11-21T12:43:34;12.70;99.90
24164;DHT22;12319;49.204;8.116;2023-11-21T12:46:06;12.70;99.90
24164;DHT22;12319;49.204;8.116;2023-11-21T12:48:32;12.70;99.90
24164;DHT22;12319;49.204;8.116;2023-11-21T12:50:57;12.70;99.90
24164;DHT22;12319;49.204;8.116;2023-11-21T12:53:26;12.70;99.90
24164;DHT22;12319;49.204;8.116;2023-11-21T12:55:51;12.80;99.90
24164;DHT22;12319;49.204;8.116;2023-11-21T12:58:17;12.80;99.90
24164;DHT22;12319;49.204;8.116;2023-11-21T13:00:47;12.80;99.90
24164;DHT22;12319;49.204;8.116;2023-11-21T13:03:14;12.80;99.90
24164;DHT22;12319;49.204;8.116;2023-11-21T13:05:46;12.80;99.90
24164;DHT22;12319;49.204;8.116;2023-11-21T13:08:16;12.90;99.90
24164;DHT22;12319;49.204;8.116;2023-11-21T13:10:45;12.90;99.90
24164;DHT22;12319;49.204;8.116;2023-11-21T13:13:14;12.90;99.90
24164;DHT22;12319;49.204;8.116;2023-11-21T13:16:02;12.90;99.90
24164;DHT22;12319;49.204;8.116;2023-11-21T13:18:30;12.80;99.90
24164;DHT22;12319;49.204;8.116;2023-11-21T13:21:02;12.80;99.90
24164;DHT22;12319;49.204;8.116;2023-11-21T13:23:34;12.80;99.90
24164;DHT22;12319;49.204;8.116;2023-11-21T13:26:01;12.70;99.90
24164;DHT22;12319;49.204;8.116;2023-11-21T13:28:29;12.70;99.90
24164;DHT22;12319;49.204;8.116;2023-11-21T13:30:58;12.60;99.90
24164;DHT22;12319;49.204;8.116;2023-11-21T13:33:28;12.60;99.90
24164;DHT22;12319;49.204;8.116;2023-11-21T13:35:54;12.50;99.90
24164;DHT22;12319;49.204;8.116;2023-11-21T13:38:21;12.50;99.90
24164;DHT22;12319;49.204;8.116;2023-11-21T13:40:52;12.40;99.90
24164;DHT22;12319;49.204;8.116;2023-11-21T13:43:24;12.40;99.90
24164;DHT22;12319;49.204;8.116;2023-11-21T13:45:52;12.40;99.90
24164;DHT22;12319;49.204;8.116;2023-11-21T13:48:28;12.40;99.90
24164;DHT22;12319;49.204;8.116;2023-11-21T13:51:01;12.50;99.90
24164;DHT22;12319;49.204;8.116;2023-11-21T13:53:41;12.50;99.90
24164;DHT22;12319;49.204;8.116;2023-11-21T13:56:08;12.50;99.90
24164;DHT22;12319;49.204;8.116;2023-11-21T13:58:34;12.60;99.90
24164;DHT22;12319;49.204;8.116;2023-11-21T14:01:17;12.60;99.90
24164;DHT22;12319;49.204;8.116;2023-11-21T14:03:55;12.70;99.90
24164;DHT22;12319;49.204;8.116;2023-11-21T14:06:27;12.70;99.90
24164;DHT22;12319;49.204;8.116;2023-11-21T14:09:02;12.80;99.90
24164;DHT22;12319;49.204;8.116;2023-11-21T14:11:31;12.90;99.90
24164;DHT22;12319;49.204;8.116;2023-11-21T14:13:56;12.90;99.90
24164;DHT22;12319;49.204;8.116;2023-11-21T14:16:24;12.90;99.90
24164;DHT22;12319;49.204;8.116;2023-11-21T14:18:50;12.90;99.90
24164;DHT22;12319;49.204;8.116;2023-11-21T14:21:26;12.90;99.90
24164;DHT22;12319;49.204;8.116;2023-11-21T14:23:52;12.80;99.90
24164;DHT22;12319;49.204;8.116;2023-11-21T14:26:20;12.80;99.90
24164;DHT22;12319;49.204;8.116;2023-11-21T14:28:46;12.80;99.90
24164;DHT22;12319;49.204;8.116;2023-11-21T14:31:14;12.80;99.90
24164;DHT22;12319;49.204;8.116;2023-11-21T14:33:43;12.70;99.90
24164;DHT22;12319;49.204;8.116;2023-11-21T14:36:09;12.70;99.90
24164;DHT22;12319;49.204;8.116;2023-11-21T14:38:36;12.60;99.90
24164;DHT22;12319;49.204;8.116;2023-11-21T14:41:02;12.60;99.90
24164;DHT22;12319;49.204;8.116;2023-11-21T14:43:29;12.60;99.90
24164;DHT22;12319;49.204;8.116;2023-11-21T14:45:59;12.60;99.90
24164;DHT22;12319;49.204;8.116;2023-11-21T14:48:25;12.60;99.90
24164;DHT22;12319;49.204;8.116;2023-11-21T14:51:12;12.60;99.90
24164;DHT22;12319;49.204;8.116;2023-11-21T14:53:56;12.60;99.90
24164;DHT22;12319;49.204;8.116;2023-11-21T14:56:28;12.60;99.90
24164;DHT22;12319;49.204;8.116;2023-11-21T14:59:00;12.60;99.90
24164;DHT22;12319;49.204;8.116;2023-11-21T15:01:34;12.50;99.90
24164;DHT22;12319;49.204;8.116;2023-11-21T15:04:21;12.50;99.90
24164;DHT22;12319;49.204;8.116;2023-11-21T15:07:04;12.50;99.90
24164;DHT22;12319;49.204;8.116;2023-11-21T15:09:30;12.50;99.90
24164;DHT22;12319;49.204;8.116;2023-11-21T15:11:59;12.40;99.90
24164;DHT22;12319;49.204;8.116;2023-11-21T15:14:54;12.40;99.90
24164;DHT22;12319;49.204;8.116;2023-11-21T15:17:22;12.40;99.90
24164;DHT22;12319;49.204;8.116;2023-11-21T15:19:56;12.40;99.90
24164;DHT22;12319;49.204;8.116;2023-11-21T15:22:22;12.40;99.90
24164;DHT22;12319;49.204;8.116;2023-11-21T15:24:48;12.30;99.90
24164;DHT22;12319;49.204;8.116;2023-11-21T15:27:15;12.30;99.90
24164;DHT22;12319;49.204;8.116;2023-11-21T15:29:41;12.30;99.90
24164;DHT22;12319;49.204;8.116;2023-11-21T15:32:08;12.20;99.90
24164;DHT22;12319;49.204;8.116;2023-11-21T15:34:34;12.20;99.90
24164;DHT22;12319;49.204;8.116;2023-11-21T15:37:01;12.10;99.90
24164;DHT22;12319;49.204;8.116;2023-11-21T15:39:26;12.10;99.90
24164;DHT22;12319;49.204;8.116;2023-11-21T15:41:59;12.10;99.90
24164;DHT22;12319;49.204;8.116;2023-11-21T15:44:25;12.00;99.90